Aviation Digital Data Service (ADDS)

Output produced by METARs form (0213 UTC 11 December 2016)
found at http://aviationweather.gov/adds/metars/
 
KHLG 102340Z 1100/1124 26005KT P6SM -SN FEW025 OVC035 
     FM110100 23004KT P6SM OVC050 
     FM110600 19003KT P6SM VCSH OVC050 
     FM110700 16003KT 2SM -SN OVC015 
     FM111400 15006KT P6SM VCSH OVC050